createdAt,value
2023-03-04T00:00:03.394Z,63.17
2023-03-04T00:02:30.346Z,60.93
2023-03-04T00:04:57.387Z,64.13
2023-03-04T00:07:24.479Z,71.60
2023-03-04T00:09:51.412Z,62.10
2023-03-04T00:12:18.426Z,67.77
2023-03-04T00:14:45.446Z,65.07
2023-03-04T00:17:12.464Z,60.90
2023-03-04T00:19:39.556Z,63.17
2023-03-04T00:22:06.611Z,60.73
2023-03-04T00:24:33.631Z,66.70
2023-03-04T00:27:00.734Z,61.83
2023-03-04T00:29:28.050Z,68.40
2023-03-04T00:31:55.135Z,61.43
2023-03-04T00:34:22.330Z,70.37
2023-03-04T00:36:49.453Z,64.77
2023-03-04T00:39:16.765Z,61.57
2023-03-04T00:41:43.820Z,63.70
2023-03-04T00:44:10.894Z,62.23
2023-03-04T00:46:38.812Z,60.63
2023-03-04T00:49:05.819Z,64.97
2023-03-04T00:51:32.821Z,61.50
2023-03-04T00:54:00.981Z,62.77
2023-03-04T00:56:28.390Z,64.43
2023-03-04T00:58:55.655Z,62.60
2023-03-04T01:01:22.815Z,66.47
2023-03-04T01:03:49.810Z,63.13
2023-03-04T01:06:16.891Z,60.53
2023-03-04T01:08:44.073Z,62.73
2023-03-04T01:11:11.437Z,62.13
2023-03-04T01:13:38.879Z,62.03
2023-03-04T01:16:07.225Z,62.67
2023-03-04T01:18:34.304Z,64.27
2023-03-04T01:21:01.444Z,63.27
2023-03-04T01:23:28.473Z,64.77
2023-03-04T01:25:55.517Z,62.40
2023-03-04T01:28:22.489Z,65.90
2023-03-04T01:30:49.532Z,59.57
2023-03-04T01:33:16.629Z,61.47
2023-03-04T01:35:43.665Z,58.30
2023-03-04T01:38:10.747Z,62.13
2023-03-04T01:40:38.166Z,63.83
2023-03-04T01:43:05.983Z,59.70
2023-03-04T01:45:33.872Z,63.40
2023-03-04T01:48:01.044Z,59.80
2023-03-04T01:50:34.092Z,61.87
2023-03-04T01:53:02.937Z,58.70
2023-03-04T01:55:31.054Z,62.87
2023-03-04T01:57:58.087Z,59.20
2023-03-04T02:00:31.945Z,62.63
2023-03-04T02:03:04.637Z,60.07
2023-03-04T02:05:31.711Z,62.37
2023-03-04T02:07:59.946Z,58.77
2023-03-04T02:10:27.352Z,61.73
2023-03-04T02:12:54.712Z,92.40
2023-03-04T02:15:22.288Z,59.23
2023-03-04T02:17:49.994Z,59.87
2023-03-04T02:20:31.348Z,60.33
2023-03-04T02:23:10.156Z,59.87
2023-03-04T02:26:11.440Z,63.63
2023-03-04T02:28:38.441Z,64.70
2023-03-04T02:31:05.882Z,61.07
2023-03-04T02:33:33.343Z,62.53
2023-03-04T02:36:00.320Z,58.63
2023-03-04T02:38:27.275Z,60.60
2023-03-04T02:40:56.566Z,58.63
2023-03-04T02:43:23.597Z,61.53
2023-03-04T02:45:51.729Z,56.97
2023-03-04T02:48:23.972Z,60.20
2023-03-04T02:50:53.841Z,60.87
2023-03-04T02:53:22.129Z,58.97
2023-03-04T02:55:49.655Z,56.90
2023-03-04T02:58:16.926Z,60.13
2023-03-04T03:00:44.039Z,58.43
2023-03-04T03:03:11.259Z,65.00
2023-03-04T03:05:39.081Z,59.17
2023-03-04T03:08:06.674Z,58.10
2023-03-04T03:10:34.309Z,58.30
2023-03-04T03:13:01.310Z,60.33
2023-03-04T03:15:28.279Z,62.57
2023-03-04T03:17:55.305Z,59.40
2023-03-04T03:20:22.330Z,57.27
2023-03-04T03:22:49.361Z,60.53
2023-03-04T03:25:17.526Z,56.90
2023-03-04T03:27:44.582Z,55.33
2023-03-04T03:30:15.083Z,60.23
2023-03-04T03:32:42.155Z,58.80
2023-03-04T03:35:09.922Z,56.93
2023-03-04T03:37:36.935Z,61.33
2023-03-04T03:40:05.025Z,55.83
2023-03-04T03:42:32.081Z,64.83
2023-03-04T03:44:59.070Z,58.13
2023-03-04T03:47:26.084Z,62.07
2023-03-04T03:49:53.233Z,55.60
2023-03-04T03:52:20.261Z,59.33
2023-03-04T03:54:47.332Z,56.23
2023-03-04T03:57:14.484Z,59.43
2023-03-04T03:59:41.936Z,57.50
2023-03-04T04:02:09.173Z,58.80
2023-03-04T04:04:36.197Z,58.27
2023-03-04T04:07:03.297Z,58.43
2023-03-04T04:09:30.259Z,60.93
2023-03-04T04:11:57.721Z,56.77
2023-03-04T04:14:24.756Z,62.97
2023-03-04T04:16:51.898Z,59.60
2023-03-04T04:19:20.429Z,58.23
2023-03-04T04:21:47.871Z,55.80
2023-03-04T04:24:16.289Z,65.20
2023-03-04T04:26:43.482Z,57.33
2023-03-04T04:29:13.548Z,56.60
2023-03-04T04:31:41.287Z,57.03
2023-03-04T04:34:08.717Z,59.90
2023-03-04T04:36:35.830Z,57.53
2023-03-04T04:39:03.604Z,57.13
2023-03-04T04:41:37.432Z,58.57
2023-03-04T04:44:04.752Z,56.73
2023-03-04T04:46:31.910Z,61.33
2023-03-04T04:48:58.960Z,56.67
2023-03-04T04:51:25.977Z,60.90
2023-03-04T04:53:52.906Z,57.23
2023-03-04T04:56:26.304Z,53.93
2023-03-04T04:58:56.763Z,58.93
2023-03-04T05:01:25.025Z,55.53
2023-03-04T05:03:53.341Z,56.27
2023-03-04T05:06:21.705Z,54.27
2023-03-04T05:08:49.488Z,57.50
2023-03-04T05:11:17.550Z,53.63
2023-03-04T05:13:44.537Z,57.90
2023-03-04T05:16:11.835Z,57.60
2023-03-04T05:18:38.889Z,58.70
2023-03-04T05:21:06.697Z,54.53
2023-03-04T05:23:37.716Z,57.63
2023-03-04T05:26:06.894Z,53.97
2023-03-04T05:28:35.397Z,56.83
2023-03-04T05:31:03.389Z,55.83
2023-03-04T05:33:30.844Z,58.17
2023-03-04T05:35:58.374Z,57.00
2023-03-04T05:38:25.837Z,57.63
2023-03-04T05:40:59.368Z,59.43
2023-03-04T05:43:28.005Z,57.43
2023-03-04T05:45:55.792Z,53.47
2023-03-04T05:48:23.917Z,54.90
2023-03-04T05:50:56.572Z,56.97
2023-03-04T05:53:24.242Z,55.67
2023-03-04T05:55:52.336Z,56.77
2023-03-04T05:58:20.338Z,59.13
2023-03-04T06:00:47.803Z,59.57
2023-03-04T06:03:21.457Z,53.87
2023-03-04T06:05:48.793Z,57.20
2023-03-04T06:08:15.843Z,55.67
2023-03-04T06:10:43.160Z,56.10
2023-03-04T06:13:10.491Z,54.83
2023-03-04T06:15:39.772Z,57.57
2023-03-04T06:18:07.942Z,57.57
2023-03-04T06:20:35.253Z,60.53
2023-03-04T06:23:02.350Z,58.00
2023-03-04T06:25:29.971Z,54.73
2023-03-04T06:27:56.977Z,59.13
2023-03-04T06:30:24.487Z,56.17
2023-03-04T06:32:51.513Z,58.83
2023-03-04T06:35:18.627Z,58.40
2023-03-04T06:37:45.788Z,67.43
2023-03-04T06:40:14.116Z,57.90
2023-03-04T06:42:42.222Z,55.07
2023-03-04T06:45:10.688Z,55.27
2023-03-04T06:47:38.025Z,58.00
2023-03-04T06:50:05.820Z,56.90
2023-03-04T06:52:33.057Z,57.83
2023-03-04T06:55:00.181Z,55.87
2023-03-04T06:57:27.279Z,55.27
2023-03-04T06:59:54.453Z,57.93
2023-03-04T07:02:21.642Z,59.33
2023-03-04T07:04:48.972Z,61.43
2023-03-04T07:07:16.100Z,62.37
2023-03-04T07:09:43.161Z,61.40
2023-03-04T07:12:10.343Z,60.67
2023-03-04T07:14:37.446Z,65.70
2023-03-04T07:17:04.529Z,58.93
2023-03-04T07:19:31.567Z,58.90
2023-03-04T07:21:58.599Z,63.43
2023-03-04T07:24:25.624Z,66.57
2023-03-04T07:26:52.656Z,58.80
2023-03-04T07:29:19.720Z,61.83
2023-03-04T07:31:46.979Z,60.90
2023-03-04T07:34:15.105Z,62.90
2023-03-04T07:36:42.787Z,73.33
2023-03-04T07:39:11.705Z,64.33
2023-03-04T07:41:39.024Z,69.23
2023-03-04T07:44:08.093Z,63.87
2023-03-04T07:46:35.791Z,65.87
2023-03-04T07:49:03.236Z,64.63
2023-03-04T07:51:30.617Z,63.10
2023-03-04T07:54:00.615Z,68.27
2023-03-04T07:56:31.677Z,64.33
2023-03-04T07:59:00.354Z,69.13
2023-03-04T08:01:35.282Z,66.70
2023-03-04T08:04:04.507Z,66.83
2023-03-04T08:06:32.155Z,69.90
2023-03-04T08:09:08.163Z,70.27
2023-03-04T08:11:38.025Z,72.07
2023-03-04T08:14:06.306Z,70.23
2023-03-04T08:16:33.693Z,67.90
2023-03-04T08:19:03.176Z,77.47
2023-03-04T08:21:30.752Z,74.00
2023-03-04T08:24:02.625Z,74.83
2023-03-04T08:26:35.372Z,68.23
2023-03-04T08:29:05.406Z,70.40
2023-03-04T08:31:33.177Z,71.17
2023-03-04T08:34:02.172Z,76.80
2023-03-04T08:36:29.367Z,68.80
2023-03-04T08:41:34.580Z,103.57
2023-03-04T08:44:02.370Z,78.30
2023-03-04T08:46:29.874Z,74.53
2023-03-04T08:48:57.160Z,86.43
2023-03-04T08:51:27.015Z,81.37
2023-03-04T08:53:54.239Z,73.97
2023-03-04T08:56:21.249Z,71.60
2023-03-04T08:58:48.346Z,94.60
2023-03-04T09:01:17.156Z,76.47
2023-03-04T09:03:44.686Z,80.97
2023-03-04T09:06:16.098Z,76.00
2023-03-04T09:08:44.776Z,90.43
2023-03-04T09:11:13.620Z,180.67
2023-03-04T09:13:40.908Z,105.93
2023-03-04T09:16:13.467Z,79.50
2023-03-04T09:18:42.074Z,82.50
2023-03-04T09:21:13.732Z,177.67
2023-03-04T09:23:41.428Z,207.33
2023-03-04T09:26:23.565Z,182.13
2023-03-04T09:28:57.968Z,135.97
2023-03-04T09:31:29.706Z,211.73
2023-03-04T09:33:58.747Z,120.23
2023-03-04T09:36:27.180Z,157.23
2023-03-04T09:38:54.511Z,160.53
2023-03-04T09:41:47.352Z,86.60
2023-03-04T09:44:26.684Z,80.97
2023-03-04T09:46:59.421Z,85.53
2023-03-04T09:49:27.681Z,83.20
2023-03-04T09:52:51.060Z,84.17
2023-03-04T09:55:31.923Z,82.17
2023-03-04T09:58:31.314Z,80.40
2023-03-04T10:01:11.081Z,81.20
2023-03-04T10:03:48.998Z,92.23
2023-03-04T10:06:23.847Z,83.00
2023-03-04T10:09:07.143Z,85.53
2023-03-04T10:12:03.318Z,86.70
2023-03-04T10:14:38.002Z,86.80
2023-03-04T10:17:45.661Z,83.07
2023-03-04T10:20:26.969Z,96.70
2023-03-04T10:23:00.619Z,83.20
2023-03-04T10:25:33.349Z,88.27
2023-03-04T10:28:05.363Z,87.20
2023-03-04T10:30:58.807Z,85.20
2023-03-04T10:33:30.873Z,85.87
2023-03-04T10:36:04.672Z,87.47
2023-03-04T10:38:36.370Z,84.17
2023-03-04T10:41:24.770Z,87.30
2023-03-04T10:44:04.527Z,89.20
2023-03-04T10:46:32.865Z,90.67
2023-03-04T10:49:00.093Z,87.60
2023-03-04T10:51:30.110Z,89.40
2023-03-04T10:54:25.387Z,88.73
2023-03-04T10:57:05.357Z,96.60
2023-03-04T10:59:41.942Z,110.83
2023-03-04T11:02:38.948Z,102.63
2023-03-04T11:05:14.805Z,92.77
2023-03-04T11:07:56.240Z,95.90
2023-03-04T11:10:36.171Z,95.60
2023-03-04T11:13:18.729Z,111.47
2023-03-04T11:16:24.193Z,111.30
2023-03-04T11:19:09.671Z,100.10
2023-03-04T11:21:41.062Z,89.47
2023-03-04T11:24:30.998Z,101.23
2023-03-04T11:27:42.904Z,108.27
2023-03-04T11:30:21.916Z,93.23
2023-03-04T11:32:53.250Z,94.03
2023-03-04T11:35:35.466Z,93.70
2023-03-04T11:38:29.762Z,92.37
2023-03-04T11:41:05.192Z,91.57
2023-03-04T11:43:41.347Z,90.83
2023-03-04T11:46:36.841Z,97.60
2023-03-04T11:49:15.876Z,102.17
2023-03-04T11:52:16.760Z,95.60
2023-03-04T11:55:08.013Z,94.67
2023-03-04T11:57:49.241Z,104.80
2023-03-04T12:00:32.306Z,118.57
2023-03-04T12:03:24.818Z,125.03
2023-03-04T12:06:18.465Z,127.27
2023-03-04T12:09:03.699Z,119.63
2023-03-04T12:11:40.816Z,106.83
2023-03-04T12:14:35.306Z,108.43
2023-03-04T12:17:45.911Z,105.87
2023-03-04T12:20:56.140Z,96.80
2023-03-04T12:24:19.065Z,95.40
2023-03-04T12:27:47.275Z,109.57
2023-03-04T12:31:03.940Z,200.33
2023-03-04T12:33:55.657Z,151.10
2023-03-04T12:36:43.347Z,181.13
2023-03-04T12:39:42.817Z,120.97
2023-03-04T12:42:40.726Z,120.80
2023-03-04T12:45:41.783Z,135.83
2023-03-04T12:48:33.979Z,110.03
2023-03-04T12:51:16.614Z,116.73
2023-03-04T12:54:20.454Z,118.75
2023-03-04T12:57:12.770Z,124.10
2023-03-04T13:00:21.323Z,109.10
2023-03-04T13:03:13.994Z,147.97
2023-03-04T13:06:11.683Z,120.83
2023-03-04T13:08:51.205Z,104.20
2023-03-04T13:11:27.563Z,93.67
2023-03-04T13:14:17.484Z,100.07
2023-03-04T13:16:46.841Z,104.80
2023-03-04T13:19:57.075Z,98.20
2023-03-04T13:22:39.544Z,111.23
2023-03-04T13:25:31.834Z,110.40
2023-03-04T13:28:10.488Z,110.63
2023-03-04T13:30:38.360Z,111.23
2023-03-04T13:33:12.777Z,112.37
2023-03-04T13:36:01.055Z,108.07
2023-03-04T13:38:31.221Z,116.77
2023-03-04T13:41:27.798Z,106.63
2023-03-04T13:44:03.509Z,108.80
2023-03-04T13:46:50.785Z,101.67
2023-03-04T13:49:27.411Z,105.30
2023-03-04T13:52:01.823Z,120.93
2023-03-04T13:54:33.093Z,113.03
2023-03-04T13:57:20.578Z,114.50
2023-03-04T13:59:58.663Z,111.90
2023-03-04T14:02:27.446Z,99.17
2023-03-04T14:04:54.523Z,101.27
2023-03-04T14:07:29.848Z,109.07
2023-03-04T14:10:15.091Z,105.20
2023-03-04T14:12:55.066Z,103.73
2023-03-04T14:15:30.874Z,104.23
2023-03-04T14:18:04.414Z,105.40
2023-03-04T14:20:59.304Z,101.13
2023-03-04T14:23:36.166Z,96.70
2023-03-04T14:26:15.916Z,94.50
2023-03-04T14:28:49.884Z,110.97
2023-03-04T14:31:22.791Z,119.30
2023-03-04T14:34:13.650Z,102.20
2023-03-04T14:36:44.444Z,99.00
2023-03-04T14:39:18.464Z,95.97
2023-03-04T14:41:48.059Z,253.80
2023-03-04T14:44:24.933Z,100.80
2023-03-04T14:47:07.488Z,99.07
2023-03-04T14:49:37.306Z,99.83
2023-03-04T14:52:04.839Z,100.20
2023-03-04T14:54:38.637Z,103.77
2023-03-04T14:57:27.444Z,103.87
2023-03-04T14:59:54.869Z,112.87
2023-03-04T15:02:33.289Z,100.53
2023-03-04T15:05:25.971Z,105.70
2023-03-04T15:08:25.225Z,111.60
2023-03-04T15:11:01.922Z,102.63
2023-03-04T15:13:49.919Z,99.80
2023-03-04T15:16:23.534Z,103.90
2023-03-04T15:19:06.118Z,110.50
2023-03-04T15:21:34.779Z,102.20
2023-03-04T15:24:03.856Z,106.97
2023-03-04T15:26:38.686Z,108.67
2023-03-04T15:29:19.218Z,108.13
2023-03-04T15:31:50.009Z,109.70
2023-03-04T15:34:19.631Z,110.80
2023-03-04T15:36:53.094Z,128.10
2023-03-04T15:39:21.925Z,115.28
2023-03-04T15:41:50.708Z,112.50
2023-03-04T15:44:18.102Z,138.17
2023-03-04T15:46:45.283Z,133.70
2023-03-04T15:49:12.495Z,142.93
2023-03-04T15:51:40.150Z,136.20
2023-03-04T15:54:17.186Z,134.10
2023-03-04T15:56:44.315Z,124.30
2023-03-04T15:59:14.334Z,117.82
2023-03-04T16:01:41.585Z,114.07
2023-03-04T16:04:18.836Z,115.80
2023-03-04T16:06:47.879Z,111.90
2023-03-04T16:09:18.804Z,113.17
2023-03-04T16:11:47.882Z,117.53
2023-03-04T16:14:16.341Z,118.18
2023-03-04T16:16:44.478Z,117.43
2023-03-04T16:19:11.938Z,110.67
2023-03-04T16:21:39.251Z,112.77
2023-03-04T16:24:07.034Z,116.75
2023-03-04T16:26:36.315Z,114.97
2023-03-04T16:29:03.530Z,117.03
2023-03-04T16:31:30.755Z,117.30
2023-03-04T16:33:58.093Z,119.03
2023-03-04T16:36:27.886Z,113.63
2023-03-04T16:39:02.809Z,116.30
2023-03-04T16:41:30.783Z,109.53
2023-03-04T16:44:01.690Z,115.22
2023-03-04T16:46:30.342Z,123.15
2023-03-04T16:48:57.491Z,114.00
2023-03-04T16:51:24.596Z,128.60
2023-03-04T16:54:02.126Z,114.33
2023-03-04T16:56:29.766Z,112.22
2023-03-04T16:58:57.209Z,136.53
2023-03-04T17:01:28.931Z,132.63
2023-03-04T17:03:56.804Z,134.33
2023-03-04T17:06:25.278Z,102.83
2023-03-04T17:08:52.430Z,110.57
2023-03-04T17:11:23.505Z,110.37
2023-03-04T17:13:51.735Z,141.10
2023-03-04T17:16:19.913Z,123.67
2023-03-04T17:18:51.595Z,141.40
2023-03-04T17:21:23.288Z,148.87
2023-03-04T17:23:51.094Z,201.37
2023-03-04T17:26:21.193Z,132.93
2023-03-04T17:28:51.999Z,154.50
2023-03-04T17:31:20.741Z,135.43
2023-03-04T17:33:49.525Z,140.07
2023-03-04T17:36:18.309Z,134.93
2023-03-04T17:38:46.536Z,146.23
2023-03-04T17:41:17.690Z,128.53
2023-03-04T17:43:51.361Z,127.13
2023-03-04T17:46:23.677Z,174.90
2023-03-04T17:48:56.487Z,146.80
2023-03-04T17:51:36.623Z,121.47
2023-03-04T17:54:05.870Z,121.00
2023-03-04T17:56:34.134Z,129.13
2023-03-04T17:59:05.681Z,129.30
2023-03-04T18:01:32.762Z,139.83
2023-03-04T18:04:05.624Z,130.43
2023-03-04T18:06:33.012Z,97.80
2023-03-04T18:09:00.141Z,114.17
2023-03-04T18:11:28.218Z,97.53
2023-03-04T18:13:56.726Z,105.23
2023-03-04T18:16:27.284Z,116.73
2023-03-04T18:19:00.117Z,141.57
2023-03-04T18:21:29.680Z,121.80
2023-03-04T18:23:57.678Z,132.40
2023-03-04T18:29:08.053Z,105.20
2023-03-04T18:31:37.142Z,101.27
2023-03-04T18:34:05.199Z,102.43
2023-03-04T18:36:33.084Z,96.73
2023-03-04T18:39:00.456Z,98.40
2023-03-04T18:41:28.352Z,98.57
2023-03-04T18:43:55.575Z,98.90
2023-03-04T18:46:44.499Z,100.13
2023-03-04T18:49:12.902Z,96.57
2023-03-04T18:51:40.161Z,92.07
2023-03-04T18:54:07.640Z,95.73
2023-03-04T18:56:47.095Z,92.67
2023-03-04T18:59:31.307Z,99.27
2023-03-04T19:01:59.478Z,95.10
2023-03-04T19:04:28.476Z,100.37
2023-03-04T19:06:55.867Z,101.10
2023-03-04T19:09:22.866Z,96.17
2023-03-04T19:11:49.988Z,101.80
2023-03-04T19:14:17.110Z,101.70
2023-03-04T19:16:44.264Z,99.40
2023-03-04T19:19:11.440Z,102.87
2023-03-04T19:21:40.257Z,104.23
2023-03-04T19:24:08.237Z,103.07
2023-03-04T19:26:35.583Z,109.83
2023-03-04T19:29:02.712Z,101.57
2023-03-04T19:31:29.954Z,93.77
2023-03-04T19:33:57.210Z,98.93
2023-03-04T19:36:25.753Z,100.30
2023-03-04T19:38:52.913Z,98.57
2023-03-04T19:41:20.106Z,99.40
2023-03-04T19:43:50.262Z,99.40
2023-03-04T19:46:17.514Z,96.17
2023-03-04T19:48:45.223Z,108.53
2023-03-04T19:51:26.118Z,102.50
2023-03-04T19:53:54.528Z,99.47
2023-03-04T19:56:22.957Z,99.10
2023-03-04T19:58:58.765Z,97.03
2023-03-04T20:01:28.579Z,96.10
2023-03-04T20:04:10.791Z,91.00
2023-03-04T20:06:42.345Z,89.20
2023-03-04T20:09:09.983Z,95.83
2023-03-04T20:11:44.254Z,98.30
2023-03-04T20:14:22.428Z,90.47
2023-03-04T20:16:49.493Z,94.07
2023-03-04T20:19:16.475Z,92.80
2023-03-04T20:21:43.681Z,93.83
2023-03-04T20:24:10.652Z,105.47
2023-03-04T20:26:39.484Z,89.83
2023-03-04T20:29:06.792Z,92.53
2023-03-04T20:31:38.980Z,94.33
2023-03-04T20:34:07.897Z,93.07
2023-03-04T20:36:36.002Z,95.63
2023-03-04T20:39:10.175Z,98.50
2023-03-04T20:41:42.384Z,92.80
2023-03-04T20:44:09.484Z,96.43
2023-03-04T20:46:45.312Z,94.63
2023-03-04T20:49:22.281Z,95.17
2023-03-04T20:51:51.299Z,95.00
2023-03-04T20:54:18.360Z,97.43
2023-03-04T20:56:45.867Z,94.93
2023-03-04T20:59:13.754Z,100.10
2023-03-04T21:01:43.521Z,97.70
2023-03-04T21:04:11.453Z,97.10
2023-03-04T21:06:39.618Z,107.50
2023-03-04T21:09:11.210Z,92.40
2023-03-04T21:11:41.367Z,97.87
2023-03-04T21:14:23.293Z,95.20
2023-03-04T21:16:56.755Z,101.47
2023-03-04T21:19:28.913Z,122.07
2023-03-04T21:21:58.351Z,95.23
2023-03-04T21:24:29.629Z,95.43
2023-03-04T21:26:57.339Z,95.23
2023-03-04T21:29:27.025Z,90.47
2023-03-04T21:32:16.829Z,91.53
2023-03-04T21:34:51.794Z,90.83
2023-03-04T21:37:23.972Z,95.27
2023-03-04T21:39:51.522Z,92.70
2023-03-04T21:42:19.501Z,90.80
2023-03-04T21:44:51.158Z,92.73
2023-03-04T21:47:21.972Z,92.77
2023-03-04T21:49:49.307Z,98.20
2023-03-04T21:52:18.194Z,91.90
2023-03-04T21:54:45.598Z,100.13
2023-03-04T21:57:14.223Z,96.47
2023-03-04T21:59:41.654Z,95.07
2023-03-04T22:02:20.917Z,92.60
2023-03-04T22:04:48.445Z,94.30
2023-03-04T22:07:15.675Z,90.90
2023-03-04T22:09:42.850Z,96.10
2023-03-04T22:12:09.967Z,94.37
2023-03-04T22:14:37.031Z,97.73
2023-03-04T22:17:04.232Z,98.73
2023-03-04T22:19:33.055Z,97.37
2023-03-04T22:22:00.379Z,98.73
2023-03-04T22:24:27.701Z,95.27
2023-03-04T22:26:57.591Z,97.90
2023-03-04T22:29:24.786Z,97.77
2023-03-04T22:31:51.837Z,91.10
2023-03-04T22:34:18.933Z,91.97
2023-03-04T22:36:47.316Z,97.97
2023-03-04T22:39:19.384Z,96.27
2023-03-04T22:41:46.876Z,91.20
2023-03-04T22:44:14.162Z,92.17
2023-03-04T22:46:42.315Z,89.97
2023-03-04T22:49:12.600Z,92.43
2023-03-04T22:51:42.776Z,91.17
2023-03-04T22:54:15.603Z,90.67
2023-03-04T22:56:43.211Z,93.13
2023-03-04T22:59:10.920Z,89.70
2023-03-04T23:01:38.074Z,90.20
2023-03-04T23:04:05.507Z,94.70
2023-03-04T23:06:32.663Z,91.60
2023-03-04T23:09:01.137Z,90.43
2023-03-04T23:11:31.759Z,93.83
2023-03-04T23:14:02.194Z,91.43
2023-03-04T23:16:29.370Z,91.33
2023-03-04T23:18:59.141Z,92.80
2023-03-04T23:21:28.405Z,88.13
2023-03-04T23:23:55.636Z,88.57
2023-03-04T23:26:30.535Z,92.83
2023-03-04T23:29:00.345Z,91.00
2023-03-04T23:31:32.299Z,90.30
2023-03-04T23:34:01.152Z,96.83
2023-03-04T23:36:34.992Z,89.77
2023-03-04T23:39:03.319Z,89.77
2023-03-04T23:41:33.015Z,90.77
2023-03-04T23:44:01.035Z,92.97
2023-03-04T23:46:29.341Z,95.60
2023-03-04T23:48:56.629Z,94.30
2023-03-04T23:51:27.778Z,90.83
2023-03-04T23:53:56.140Z,88.93
2023-03-04T23:56:30.443Z,91.87
2023-03-04T23:58:58.709Z,90.60
